createdAt,value
2022-10-06T00:10:34.852Z,75.2
2022-10-06T00:25:43.636Z,75.9
2022-10-06T00:40:52.714Z,77.4
2022-10-06T00:56:01.655Z,78.5
2022-10-06T01:11:12.964Z,78.8
2022-10-06T01:26:22.380Z,78.9
2022-10-06T01:41:31.889Z,78.9
2022-10-06T01:56:41.123Z,78.8
2022-10-06T02:11:50.201Z,78.7
2022-10-06T02:26:59.546Z,78.8
2022-10-06T02:42:10.317Z,78.8
2022-10-06T02:57:20.339Z,79
2022-10-06T03:12:29.443Z,78.9
2022-10-06T03:27:38.897Z,79
2022-10-06T03:42:48.293Z,79.1
2022-10-06T03:57:57.545Z,79.3
2022-10-06T04:13:06.749Z,79.3
2022-10-06T04:28:16.660Z,79.1
2022-10-06T04:43:26.292Z,79
2022-10-06T04:58:36.041Z,79
2022-10-06T05:13:45.532Z,79.2
2022-10-06T05:28:54.701Z,79.3
2022-10-06T05:44:03.646Z,79.6
2022-10-06T05:59:12.810Z,79.6
2022-10-06T06:14:21.477Z,79.3
2022-10-06T06:29:30.734Z,79.5
2022-10-06T06:44:40.540Z,79.7
2022-10-06T06:59:50.152Z,79.2
2022-10-06T07:15:00.527Z,79
2022-10-06T07:30:10.874Z,78.9
2022-10-06T07:45:19.954Z,78.8
2022-10-06T08:00:30.501Z,78.6
2022-10-06T08:15:40.074Z,78.3
2022-10-06T08:30:50.432Z,77.9
2022-10-06T08:46:00.158Z,77.6
2022-10-06T09:01:10.881Z,77.2
2022-10-06T09:16:20.545Z,76.8
2022-10-06T09:31:30.347Z,76.4
2022-10-06T09:46:39.693Z,75
2022-10-06T10:01:49.984Z,75.4
2022-10-06T10:16:59.473Z,74.9
2022-10-06T10:32:09.927Z,74.6
2022-10-06T10:47:19.467Z,74.2
2022-10-06T11:02:30.425Z,73.5
2022-10-06T11:17:40.375Z,73.2
2022-10-06T11:32:50.209Z,72.5
2022-10-06T11:48:00.424Z,71.3
2022-10-06T12:03:14.577Z,69.2
2022-10-06T12:18:23.772Z,68.5
2022-10-06T12:33:33.453Z,67.5
2022-10-06T12:48:42.936Z,68.7
2022-10-06T13:03:52.944Z,67.8
2022-10-06T13:19:03.393Z,67.2
2022-10-06T13:34:13.858Z,61.5
2022-10-06T13:49:22.035Z,61.7
2022-10-06T14:04:30.280Z,66.2
2022-10-06T14:19:39.851Z,66.9
2022-10-06T14:34:49.056Z,67.2
2022-10-06T14:49:58.590Z,67.3
2022-10-06T15:05:10.591Z,67.2
2022-10-06T15:20:20.056Z,67.1
2022-10-06T15:35:29.710Z,67.5
2022-10-06T15:50:38.931Z,67.6
2022-10-06T16:05:47.992Z,67.8
2022-10-06T16:20:58.992Z,68.2
2022-10-06T16:36:10.614Z,68.4
2022-10-06T16:51:19.500Z,68.7
2022-10-06T17:06:28.808Z,69.1
2022-10-06T17:21:59.902Z,69.3
2022-10-06T17:37:10.635Z,69.3
2022-10-06T17:52:24.826Z,70.1
2022-10-06T18:07:34.166Z,70.5
2022-10-06T18:22:45.070Z,70.6
2022-10-06T18:37:57.088Z,70.8
2022-10-06T18:53:06.242Z,70.9
2022-10-06T19:08:15.736Z,71
2022-10-06T19:23:28.610Z,71
2022-10-06T19:38:38.358Z,71.4
2022-10-06T19:53:47.649Z,71.8
2022-10-06T20:08:59.363Z,72
2022-10-06T20:24:09.774Z,72.1
2022-10-06T20:39:19.002Z,71.8
2022-10-06T20:54:28.347Z,72.7
2022-10-06T21:09:37.881Z,72.5
2022-10-06T21:24:47.457Z,72.7
2022-10-06T21:40:03.154Z,72.9
2022-10-06T21:55:12.823Z,73
2022-10-06T22:10:21.566Z,73.2
2022-10-06T22:25:30.456Z,73.2
2022-10-06T22:40:40.195Z,73.5
2022-10-06T22:55:49.669Z,73.5
2022-10-06T23:10:59.229Z,73.5
2022-10-06T23:26:10.723Z,73.5
2022-10-06T23:41:20.356Z,73.8
2022-10-06T23:56:29.754Z,73.8
